Terminal Aerodrome Forecast
Issued by NWS Sioux Falls, SD

Home | Current Version | Previous Version | Graphics & Text | Print | Product List | Glossary On
Versions: 1 2 3 4 5 6 7 8 9 10 11 12 13 14 15 16 17 18 19 20 21 22 23 24
000
FTUS43 KFSD 172329
TAFSUX
TAF
KSUX 172329Z 1800/1824 08005KT P6SM SCT080 BKN200
     FM180900 09005KT P6SM -SHRA OVC070
     FM181200 10008KT 5SM SHRA OVC035
     FM181800 18008KT 6SM -SHRA OVC025
      TEMPO 1819/1821 4SM TSRA OVC015CB=

USA.gov is the U.S. government's official web portal to all federal, state and local government web resources and services.